Time;durP1;ratioP1;P1;durP2;ratioP2;P2;SDS_P1;SDS_P2;PMS_P1;PMS_P2;Temp;Humidity;BMP_temperature;BMP_pressure;BME280_temperature;BME280_humidity;BME280_pressure;Samples;Min_cycle;Max_cycle;Signal;HPM_P1;HPM_P2
2023/02/14 00:00:00;;;;;;;;;;;;;;;15.96;38.87;102350.06;5079563;28;1066;-50
2023/02/14 00:02:26;;;;;;;;;;;;;;;16.73;37.78;102334.78;5079186;28;1062;-49
2023/02/14 00:04:51;;;;;;;;;;;;;;;16.38;38.04;102328.16;5079005;28;1198;-50
2023/02/14 00:07:17;;;;;;;;;;;;;;;15.90;39.17;102327.13;5079488;28;1909;-49
2023/02/14 00:09:42;;;;;;;;;;;;;;;17.20;36.70;102326.59;5079613;28;1082;-52
2023/02/14 00:12:08;;;;;;;;;;;;;;;16.20;38.45;102323.56;5079474;28;1134;-48
2023/02/14 00:17:17;;;;;;;;;;;;;;;17.23;36.49;102328.03;5079238;28;1130;-53
2023/02/14 00:19:42;;;;;;;;;;;;;;;16.56;37.76;102318.16;5079767;28;1055;-51
2023/02/14 00:22:08;;;;;;;;;;;;;;;18.41;34.12;102313.94;5078815;28;1216;-50
2023/02/14 00:24:33;;;;;;;;;;;;;;;16.89;37.03;102311.31;5079019;28;1054;-47
2023/02/14 00:26:59;;;;;;;;;;;;;;;16.32;38.17;102312.63;5078891;28;1934;-55
2023/02/14 00:29:28;;;;;;;;;;;;;;;16.18;38.85;102313.91;5079276;28;1131;-50
2023/02/14 00:31:53;;;;;;;;;;;;;;;16.99;36.77;102306.06;5078674;28;1070;-55
2023/02/14 00:34:19;;;;;;;;;;;;;;;16.16;38.69;102307.78;5079086;28;1090;-48
2023/02/14 00:36:45;;;;;;;;;;;;;;;17.92;35.09;102299.81;5078872;28;1198;-54
2023/02/14 00:39:11;;;;;;;;;;;;;;;16.70;37.51;102296.81;5078698;28;849;-51
2023/02/14 00:41:36;;;;;;;;;;;;;;;16.06;38.58;102300.97;5077665;28;1155;-50
2023/02/14 00:44:02;;;;;;;;;;;;;;;15.85;39.22;102301.47;5078425;28;1265;-52
2023/02/14 00:46:27;;;;;;;;;;;;;;;17.02;36.84;102291.84;5078617;28;1910;-51
2023/02/14 00:48:54;;;;;;;;;;;;;;;16.05;38.77;102280.09;5077451;28;1036;-51
2023/02/14 00:51:19;;;;;;;;;;;;;;;16.07;38.87;102277.09;5078427;28;906;-51
2023/02/14 00:53:45;;;;;;;;;;;;;;;16.49;37.66;102268.03;5078278;28;1063;-52
2023/02/14 00:56:10;;;;;;;;;;;;;;;15.90;39.05;102275.00;5078338;28;1047;-52
2023/02/14 00:58:36;;;;;;;;;;;;;;;18.01;34.92;102257.06;5078870;28;1043;-52
2023/02/14 01:01:01;;;;;;;;;;;;;;;16.52;37.48;102256.56;5078317;28;1043;-51
2023/02/14 01:03:27;;;;;;;;;;;;;;;16.00;38.99;102244.25;5092857;28;1106;-53
2023/02/14 01:05:52;;;;;;;;;;;;;;;17.38;35.95;102256.06;5076851;28;1902;-52
2023/02/14 01:08:18;;;;;;;;;;;;;;;16.21;38.17;102245.63;5077019;28;1231;-51
2023/02/14 01:10:43;;;;;;;;;;;;;;;15.83;39.15;102243.28;5078459;28;1030;-49
2023/02/14 01:13:09;;;;;;;;;;;;;;;16.16;38.65;102236.44;5078341;28;1055;-55
2023/02/14 01:15:38;;;;;;;;;;;;;;;16.67;37.52;102237.69;5077751;28;916;-49
2023/02/14 01:18:04;;;;;;;;;;;;;;;15.91;39.03;102229.22;5078334;28;1113;-52
2023/02/14 01:20:29;;;;;;;;;;;;;;;17.84;35.32;102218.47;5078161;28;1127;-49
2023/02/14 01:22:54;;;;;;;;;;;;;;;16.49;37.69;102221.34;5076918;28;1075;-51
2023/02/14 01:25:20;;;;;;;;;;;;;;;17.95;35.26;102214.84;5076470;28;1915;-48
2023/02/14 01:27:45;;;;;;;;;;;;;;;17.79;35.08;102216.47;5076678;28;1126;-52
2023/02/14 01:30:12;;;;;;;;;;;;;;;16.69;37.52;102213.59;5078238;28;1019;-50
2023/02/14 01:32:39;;;;;;;;;;;;;;;16.31;38.40;102217.59;5076808;28;1645;-49
2023/02/14 01:35:04;;;;;;;;;;;;;;;16.82;37.19;102211.69;5077988;28;1110;-54
2023/02/14 01:37:30;;;;;;;;;;;;;;;16.14;38.65;102209.22;5076500;28;1620;-56
2023/02/14 01:39:55;;;;;;;;;;;;;;;15.95;39.30;102211.22;5077628;28;871;-50
2023/02/14 01:42:21;;;;;;;;;;;;;;;16.86;36.92;102204.63;5077917;28;1109;-51
2023/02/14 01:44:46;;;;;;;;;;;;;;;15.98;38.67;102213.50;5076261;28;1538;-48
2023/02/14 01:47:11;;;;;;;;;;;;;;;17.97;35.02;102211.84;5077448;28;1910;-51
2023/02/14 01:49:38;;;;;;;;;;;;;;;16.66;37.45;102216.81;5093124;28;1322;-52
2023/02/14 01:52:06;;;;;;;;;;;;;;;16.22;38.53;102208.06;5077217;28;963;-53
2023/02/14 01:54:32;;;;;;;;;;;;;;;15.87;39.02;102206.06;5077430;28;1222;-53
2023/02/14 01:56:59;;;;;;;;;;;;;;;16.62;37.69;102210.13;5110180;28;1473;-56
2023/02/14 01:59:25;;;;;;;;;;;;;;;16.91;37.36;102204.75;5076940;28;1476;-50
2023/02/14 02:01:52;;;;;;;;;;;;;;;18.43;34.24;102198.84;5077157;28;1003;-52
2023/02/14 02:04:31;;;;;;;;;;;;;;;16.85;37.27;102200.19;5075985;28;1174;-52
2023/02/14 02:06:59;;;;;;;;;;;;;;;16.27;38.37;102202.72;5075468;28;1898;-51
2023/02/14 02:09:33;;;;;;;;;;;;;;;16.97;37.06;102187.31;5075891;28;1223;-52
2023/02/14 02:11:59;;;;;;;;;;;;;;;16.12;38.73;102178.47;5093176;28;1058;-56
2023/02/14 02:14:25;;;;;;;;;;;;;;;17.15;36.82;102169.81;5076266;28;1062;-52
2023/02/14 02:17:02;;;;;;;;;;;;;;;16.37;38.03;102171.94;5077245;28;1046;-52
2023/02/14 02:19:46;;;;;;;;;;;;;;;16.99;36.99;102159.59;5063680;28;1178;-48
2023/02/14 02:22:14;;;;;;;;;;;;;;;17.22;36.40;102161.44;5076714;28;1174;-48
2023/02/14 02:24:43;;;;;;;;;;;;;;;16.28;38.40;102160.44;5092457;28;1602;-48
2023/02/14 02:27:18;;;;;;;;;;;;;;;16.80;37.38;102154.22;5076290;28;1980;-46
2023/02/14 02:29:43;;;;;;;;;;;;;;;16.29;38.08;102148.41;5076911;28;1141;-48
2023/02/14 02:32:14;;;;;;;;;;;;;;;16.43;38.00;102151.75;5077327;28;1035;-49
2023/02/14 02:34:59;;;;;;;;;;;;;;;17.23;36.31;102144.69;5075251;28;1223;-49
2023/02/14 02:37:43;;;;;;;;;;;;;;;16.16;38.38;102143.13;5077076;28;1073;-49
2023/02/14 02:40:27;;;;;;;;;;;;;;;17.22;36.56;102128.44;5076154;28;848;-49
2023/02/14 02:42:55;;;;;;;;;;;;;;;16.45;38.04;102135.84;5076550;28;1230;-51
2023/02/14 02:45:21;;;;;;;;;;;;;;;18.31;34.70;102129.25;5050512;28;1984;-52
2023/02/14 02:47:54;;;;;;;;;;;;;;;17.41;36.02;102124.41;5063277;28;1170;-51
2023/02/14 02:53:25;;;;;;;;;;;;;;;16.42;38.17;102136.34;5060195;28;1095;-48
2023/02/14 02:58:44;;;;;;;;;;;;;;;16.12;38.78;102141.94;5051311;28;1086;-53
2023/02/14 03:01:11;;;;;;;;;;;;;;;17.35;36.09;102128.16;5072110;28;1027;-53
2023/02/14 03:06:20;;;;;;;;;;;;;;;15.79;39.31;102122.19;5040595;28;1972;-53
2023/02/14 03:08:46;;;;;;;;;;;;;;;16.60;37.48;102105.16;5068025;28;1028;-54
2023/02/14 03:11:12;;;;;;;;;;;;;;;15.86;38.97;102116.63;5076062;28;1082;-51
2023/02/14 03:13:51;;;;;;;;;;;;;;;16.27;38.57;102112.13;5058305;28;1110;-50
2023/02/14 03:16:19;;;;;;;;;;;;;;;16.54;37.49;102106.16;5045398;28;889;-51
2023/02/14 03:21:29;;;;;;;;;;;;;;;17.87;34.99;102098.81;5065974;28;1004;-50
2023/02/14 03:24:06;;;;;;;;;;;;;;;16.40;38.13;102094.56;5044792;28;1614;-51
2023/02/14 03:26:44;;;;;;;;;;;;;;;15.87;38.72;102099.09;5060138;28;1917;-51
2023/02/14 03:29:24;;;;;;;;;;;;;;;17.26;35.96;102086.50;5079536;28;1172;-49
2023/02/14 03:31:57;;;;;;;;;;;;;;;15.98;38.80;102087.28;5062234;28;1101;-52
2023/02/14 03:34:25;;;;;;;;;;;;;;;17.41;36.04;102083.16;5053174;28;1299;-52
2023/02/14 03:36:53;;;;;;;;;;;;;;;16.45;37.81;102074.63;5058119;28;1103;-56
2023/02/14 03:39:23;;;;;;;;;;;;;;;16.13;38.77;102066.78;5070122;28;1126;-56
2023/02/14 03:41:50;;;;;;;;;;;;;;;17.26;36.01;102063.66;5072735;28;1040;-55
2023/02/14 03:44:17;;;;;;;;;;;;;;;16.69;37.80;102064.44;5093003;28;1153;-52
2023/02/14 03:46:46;;;;;;;;;;;;;;;18.44;34.11;102061.97;5061965;28;1976;-50
2023/02/14 03:49:13;;;;;;;;;;;;;;;17.16;36.60;102061.53;5078648;28;1067;-51
2023/02/14 03:51:38;;;;;;;;;;;;;;;16.44;37.86;102057.34;5078883;28;1046;-53
2023/02/14 03:54:06;;;;;;;;;;;;;;;17.53;35.94;102049.25;5078959;28;1106;-53
2023/02/14 03:56:41;;;;;;;;;;;;;;;16.31;38.15;102054.84;5078650;28;1032;-54
2023/02/14 03:59:13;;;;;;;;;;;;;;;18.09;34.77;102057.59;5078444;28;1240;-50
2023/02/14 04:01:46;;;;;;;;;;;;;;;17.22;36.40;102059.72;5066722;28;1067;-53
2023/02/14 04:04:12;;;;;;;;;;;;;;;16.47;38.04;102059.59;5077808;28;1031;-58
2023/02/14 04:06:37;;;;;;;;;;;;;;;16.03;38.81;102051.75;5078187;28;1902;-58
2023/02/14 04:09:03;;;;;;;;;;;;;;;16.74;37.48;102057.13;5079514;28;1121;-51
2023/02/14 04:11:32;;;;;;;;;;;;;;;16.46;37.76;102059.84;5079053;28;1016;-52
2023/02/14 04:13:57;;;;;;;;;;;;;;;15.95;38.79;102063.09;5072540;28;1110;-59
2023/02/14 04:16:23;;;;;;;;;;;;;;;17.22;36.23;102071.56;5078987;28;907;-58
2023/02/14 04:21:32;;;;;;;;;;;;;;;17.25;36.42;102072.97;5078478;28;1047;-58
2023/02/14 04:23:58;;;;;;;;;;;;;;;16.51;37.75;102074.50;5079130;28;999;-57
2023/02/14 04:26:23;;;;;;;;;;;;;;;16.97;36.97;102066.41;5079422;28;1906;-56
2023/02/14 04:28:49;;;;;;;;;;;;;;;17.92;34.89;102071.38;5078561;28;1163;-58
2023/02/14 04:31:14;;;;;;;;;;;;;;;16.49;37.96;102082.13;5079064;28;1121;-56
2023/02/14 04:33:39;;;;;;;;;;;;;;;16.11;38.34;102077.16;5079113;28;1127;-58
2023/02/14 04:36:05;;;;;;;;;;;;;;;17.00;37.03;102085.16;5078822;28;1015;-57
2023/02/14 04:38:31;;;;;;;;;;;;;;;16.35;37.97;102087.03;5078532;28;1162;-54
2023/02/14 04:40:56;;;;;;;;;;;;;;;16.94;37.14;102094.34;5078583;28;957;-56
2023/02/14 04:43:22;;;;;;;;;;;;;;;17.35;36.07;102089.66;5077729;28;1171;-55
2023/02/14 04:45:47;;;;;;;;;;;;;;;16.26;38.23;102083.00;5078605;28;1972;-56
2023/02/14 04:48:12;;;;;;;;;;;;;;;16.07;38.77;102080.41;5078811;28;1043;-60
2023/02/14 04:50:38;;;;;;;;;;;;;;;16.55;37.69;102083.06;5078577;28;1113;-59
2023/02/14 04:53:03;;;;;;;;;;;;;;;15.83;39.15;102090.50;5077667;28;942;-59
2023/02/14 04:55:29;;;;;;;;;;;;;;;15.70;39.04;102093.44;5077935;28;1061;-54
2023/02/14 04:57:54;;;;;;;;;;;;;;;15.91;39.19;102094.81;5078678;28;1114;-61
2023/02/14 05:00:20;;;;;;;;;;;;;;;16.36;38.00;102094.22;5078470;28;1110;-58
2023/02/14 05:02:45;;;;;;;;;;;;;;;16.47;37.88;102077.97;5078217;28;1054;-57
2023/02/14 05:05:11;;;;;;;;;;;;;;;18.08;34.84;102083.50;5077945;28;1162;-59
2023/02/14 05:07:36;;;;;;;;;;;;;;;16.42;37.79;102075.94;5077942;28;1984;-56
2023/02/14 05:10:02;;;;;;;;;;;;;;;15.89;39.05;102085.97;5078219;28;1158;-55
2023/02/14 05:12:28;;;;;;;;;;;;;;;16.71;37.64;102084.25;5078119;28;1113;-55
2023/02/14 05:14:54;;;;;;;;;;;;;;;16.06;38.64;102084.19;5078760;28;1070;-57
2023/02/14 05:17:20;;;;;;;;;;;;;;;15.76;39.17;102083.44;5077990;28;980;-52
2023/02/14 05:19:45;;;;;;;;;;;;;;;16.67;37.11;102100.38;5078413;28;1179;-56
2023/02/14 05:22:11;;;;;;;;;;;;;;;15.84;38.80;102107.81;5077615;28;1055;-55
2023/02/14 05:24:36;;;;;;;;;;;;;;;17.85;35.00;102104.56;5076330;28;1062;-51
2023/02/14 05:27:01;;;;;;;;;;;;;;;16.74;37.21;102101.06;5082713;28;1913;-52
2023/02/14 05:29:27;;;;;;;;;;;;;;;16.08;38.63;102097.69;5077976;28;891;-51
2023/02/14 05:31:52;;;;;;;;;;;;;;;17.58;35.51;102082.38;5077910;28;1217;-49
2023/02/14 05:34:18;;;;;;;;;;;;;;;16.30;38.00;102095.19;5077193;28;1151;-56
2023/02/14 05:36:43;;;;;;;;;;;;;;;15.89;38.84;102103.28;5076008;28;1192;-53
2023/02/14 05:39:09;;;;;;;;;;;;;;;16.05;38.78;102104.47;5077344;28;1056;-55
2023/02/14 05:41:35;;;;;;;;;;;;;;;16.93;36.78;102107.28;5076223;28;1174;-52
2023/02/14 05:44:00;;;;;;;;;;;;;;;17.13;36.40;102114.25;5076433;28;1285;-57
2023/02/14 05:46:26;;;;;;;;;;;;;;;18.53;33.70;102103.69;5063590;28;1918;-51
2023/02/14 05:48:51;;;;;;;;;;;;;;;17.16;36.25;102102.78;5075685;28;1027;-50
2023/02/14 05:51:17;;;;;;;;;;;;;;;16.45;37.79;102107.56;5076977;28;992;-54
2023/02/14 05:53:42;;;;;;;;;;;;;;;17.09;36.87;102102.91;5069971;28;1015;-53
2023/02/14 05:56:07;;;;;;;;;;;;;;;16.82;36.93;102110.03;5069404;28;1067;-48
2023/02/14 05:58:33;;;;;;;;;;;;;;;16.11;38.39;102097.19;5070379;28;2066;-53
2023/02/14 06:00:58;;;;;;;;;;;;;;;17.32;36.33;102101.16;5076731;28;1035;-53
2023/02/14 06:03:24;;;;;;;;;;;;;;;16.55;37.54;102088.56;5075931;28;1177;-51
2023/02/14 06:05:49;;;;;;;;;;;;;;;16.86;37.32;102095.56;5044681;28;1913;-53
2023/02/14 06:08:15;;;;;;;;;;;;;;;17.67;35.21;102091.88;5076487;28;1027;-50
2023/02/14 06:10:40;;;;;;;;;;;;;;;16.44;37.83;102090.28;5063253;28;1067;-52
2023/02/14 06:13:07;;;;;;;;;;;;;;;16.11;38.27;102096.38;5071232;28;1062;-47
2023/02/14 06:15:36;;;;;;;;;;;;;;;16.67;37.60;102099.56;5055475;28;1343;-52
2023/02/14 06:18:01;;;;;;;;;;;;;;;17.64;35.36;102081.34;5057789;28;1028;-51
2023/02/14 06:20:27;;;;;;;;;;;;;;;16.78;37.06;102090.44;5076292;28;1050;-52
2023/02/14 06:22:53;;;;;;;;;;;;;;;16.32;37.70;102076.53;5075920;28;1007;-49
2023/02/14 06:25:19;;;;;;;;;;;;;;;16.01;38.56;102086.81;5070905;28;1913;-49
2023/02/14 06:27:45;;;;;;;;;;;;;;;15.82;38.73;102088.00;5060641;28;1842;-53
2023/02/14 06:30:10;;;;;;;;;;;;;;;15.62;39.39;102091.84;5072094;28;869;-52
2023/02/14 06:32:36;;;;;;;;;;;;;;;15.40;39.81;102080.59;5075624;28;1046;-56
2023/02/14 06:35:02;;;;;;;;;;;;;;;15.27;39.94;102086.28;5073548;28;1039;-52
2023/02/14 06:37:27;;;;;;;;;;;;;;;15.16;40.13;102079.69;5065580;28;1115;-52
2023/02/14 06:39:53;;;;;;;;;;;;;;;15.01;40.45;102082.81;5062447;28;1083;-51
2023/02/14 06:42:19;;;;;;;;;;;;;;;16.65;37.06;102085.22;5068681;28;1045;-50
2023/02/14 06:44:44;;;;;;;;;;;;;;;17.33;35.53;102080.00;5075691;28;1185;-46
2023/02/14 06:47:10;;;;;;;;;;;;;;;16.15;37.82;102076.44;5075765;28;1981;-50
2023/02/14 06:49:35;;;;;;;;;;;;;;;15.71;38.72;102076.75;5075590;28;1030;-49
2023/02/14 06:52:01;;;;;;;;;;;;;;;15.43;39.50;102065.59;5075828;28;1261;-52
2023/02/14 06:54:26;;;;;;;;;;;;;;;15.16;40.09;102063.22;5075558;28;1070;-52
2023/02/14 06:56:51;;;;;;;;;;;;;;;16.12;38.23;102059.59;5075192;28;1264;-51
2023/02/14 06:59:17;;;;;;;;;;;;;;;17.30;35.97;102059.31;5064914;28;2207;-54
2023/02/14 07:01:42;;;;;;;;;;;;;;;16.81;36.45;102067.16;5074939;28;1039;-47
2023/02/14 07:04:08;;;;;;;;;;;;;;;15.94;38.44;102066.06;5075308;28;976;-53
2023/02/14 07:06:34;;;;;;;;;;;;;;;15.58;39.33;102065.97;5076145;28;1910;-57
2023/02/14 07:09:00;;;;;;;;;;;;;;;15.36;39.60;102066.53;5075397;28;1221;-49
2023/02/14 07:11:27;;;;;;;;;;;;;;;16.33;37.87;102071.91;5075868;28;1186;-55
2023/02/14 07:13:52;;;;;;;;;;;;;;;17.30;35.90;102070.31;5075781;28;1209;-56
2023/02/14 07:16:18;;;;;;;;;;;;;;;16.18;38.04;102069.66;5075215;28;1034;-53
2023/02/14 07:18:43;;;;;;;;;;;;;;;15.72;38.78;102083.91;5075229;28;1127;-52
2023/02/14 07:21:09;;;;;;;;;;;;;;;15.51;39.32;102068.81;5074812;28;1146;-50
2023/02/14 07:23:34;;;;;;;;;;;;;;;17.14;35.93;102054.63;5074850;28;1260;-46
2023/02/14 07:26:00;;;;;;;;;;;;;;;16.82;36.78;102052.34;5074887;28;1973;-50
2023/02/14 07:28:25;;;;;;;;;;;;;;;15.99;38.21;102052.44;5074658;28;1734;-50
2023/02/14 07:30:51;;;;;;;;;;;;;;;15.67;38.86;102060.97;5075593;28;1023;-57
2023/02/14 07:33:16;;;;;;;;;;;;;;;15.47;39.35;102058.56;5074121;28;1179;-53
2023/02/14 07:35:42;;;;;;;;;;;;;;;15.20;40.17;102057.06;5074264;28;1454;-58
2023/02/14 07:38:07;;;;;;;;;;;;;;;16.62;37.42;102056.34;5075664;28;1106;-60
2023/02/14 07:40:33;;;;;;;;;;;;;;;17.55;35.45;102052.63;5075329;28;1095;-54
2023/02/14 07:42:59;;;;;;;;;;;;;;;16.43;37.47;102053.72;5074890;28;1245;-52
2023/02/14 07:45:25;;;;;;;;;;;;;;;15.89;38.54;102053.91;5075357;28;1969;-59
2023/02/14 07:47:51;;;;;;;;;;;;;;;15.60;39.15;102063.84;5061350;28;1106;-56
2023/02/14 07:50:16;;;;;;;;;;;;;;;15.95;38.40;102062.22;5067252;28;991;-53
2023/02/14 07:52:42;;;;;;;;;;;;;;;17.39;35.90;102057.84;5069489;28;1036;-55
2023/02/14 07:55:08;;;;;;;;;;;;;;;16.71;36.83;102051.28;5074748;28;1031;-56
2023/02/14 07:57:33;;;;;;;;;;;;;;;16.06;38.17;102051.28;5069302;28;2371;-57
2023/02/14 07:59:58;;;;;;;;;;;;;;;15.72;38.88;102051.00;5055292;28;1028;-59
2023/02/14 08:02:24;;;;;;;;;;;;;;;15.64;39.14;102047.75;5069771;28;1186;-58
2023/02/14 08:04:49;;;;;;;;;;;;;;;17.21;36.32;102049.81;5068626;28;1038;-50
2023/02/14 08:07:15;;;;;;;;;;;;;;;17.20;36.03;102043.47;5067803;28;1914;-47
2023/02/14 08:09:40;;;;;;;;;;;;;;;16.30;38.08;102045.78;5063218;28;1067;-47
2023/02/14 08:14:49;;;;;;;;;;;;;;;16.01;38.64;102042.91;5057890;28;1015;-47
2023/02/14 08:17:15;;;;;;;;;;;;;;;17.51;35.67;102030.25;5063735;28;1051;-51
2023/02/14 08:19:40;;;;;;;;;;;;;;;16.71;37.31;102030.16;5066497;28;1138;-52
2023/02/14 08:22:06;;;;;;;;;;;;;;;16.13;38.62;102022.88;5064910;28;1479;-53
2023/02/14 08:24:31;;;;;;;;;;;;;;;15.84;39.03;102025.53;5078431;28;1014;-55
2023/02/14 08:26:57;;;;;;;;;;;;;;;15.99;38.86;102023.13;5051550;28;1993;-50
2023/02/14 08:29:22;;;;;;;;;;;;;;;17.40;35.96;102020.19;5071532;28;2171;-53
2023/02/14 08:31:48;;;;;;;;;;;;;;;16.37;38.01;102030.00;5068980;28;1040;-54
2023/02/14 08:34:14;;;;;;;;;;;;;;;15.89;38.71;102022.88;5056885;28;1206;-46
2023/02/14 08:36:39;;;;;;;;;;;;;;;15.68;39.36;102024.25;5068914;28;1151;-47
2023/02/14 08:39:05;;;;;;;;;;;;;;;16.03;38.69;102023.47;5060166;28;1011;-48
2023/02/14 08:41:30;;;;;;;;;;;;;;;17.25;36.30;102016.09;5062094;28;1277;-45
2023/02/14 08:43:56;;;;;;;;;;;;;;;16.19;38.31;102014.50;5074604;28;1320;-48
2023/02/14 08:46:21;;;;;;;;;;;;;;;15.72;39.29;102018.09;5078487;28;1972;-54
2023/02/14 08:48:48;;;;;;;;;;;;;;;15.52;39.45;102023.06;5078427;28;1055;-50
2023/02/14 08:51:14;;;;;;;;;;;;;;;16.76;37.09;102013.78;5078385;28;1058;-55
2023/02/14 08:53:39;;;;;;;;;;;;;;;16.95;36.58;102013.59;5077974;28;1050;-49
2023/02/14 08:56:06;;;;;;;;;;;;;;;16.02;38.36;102006.19;5072315;28;1104;-44
2023/02/14 08:58:31;;;;;;;;;;;;;;;15.65;39.20;102003.63;5074982;28;1944;-56
2023/02/14 09:00:57;;;;;;;;;;;;;;;15.42;39.71;102011.81;5078489;28;1156;-49
2023/02/14 09:03:22;;;;;;;;;;;;;;;15.33;39.98;102003.13;5078313;28;1202;-49
2023/02/14 09:05:48;;;;;;;;;;;;;;;16.92;36.78;101986.63;5077797;28;2277;-45
2023/02/14 09:08:13;;;;;;;;;;;;;;;17.11;36.02;101984.50;5078118;28;995;-48
2023/02/14 09:10:38;;;;;;;;;;;;;;;16.08;38.33;101987.94;5077136;28;1202;-48
2023/02/14 09:13:04;;;;;;;;;;;;;;;15.69;39.23;101988.38;5077704;28;991;-46
2023/02/14 09:15:29;;;;;;;;;;;;;;;15.46;39.64;101977.38;5077599;28;1135;-44
2023/02/14 09:17:55;;;;;;;;;;;;;;;16.20;38.14;101974.16;5073731;28;1082;-45
2023/02/14 09:20:20;;;;;;;;;;;;;;;17.38;36.12;101976.44;5075880;28;1403;-48
2023/02/14 09:22:46;;;;;;;;;;;;;;;16.24;38.12;101976.22;5075054;28;1166;-43
2023/02/14 09:25:11;;;;;;;;;;;;;;;15.79;39.09;101978.72;5076960;28;1292;-45
2023/02/14 09:27:37;;;;;;;;;;;;;;;15.53;39.74;101972.66;5079994;28;1977;-42
2023/02/14 09:30:04;;;;;;;;;;;;;;;15.35;40.16;101965.38;5069680;28;1351;-42
2023/02/14 09:32:30;;;;;;;;;;;;;;;16.38;38.19;101959.44;5077103;28;1339;-45
2023/02/14 09:34:55;;;;;;;;;;;;;;;17.31;36.05;101953.78;5076038;28;1162;-48
2023/02/14 09:37:21;;;;;;;;;;;;;;;16.17;38.30;101964.53;5076005;28;1237;-47
2023/02/14 09:39:46;;;;;;;;;;;;;;;15.71;39.06;101960.72;5076393;28;1356;-45
2023/02/14 09:42:20;;;;;;;;;;;;;;;15.46;39.97;101958.19;5076674;28;1235;-43
2023/02/14 09:44:47;;;;;;;;;;;;;;;15.48;39.76;101965.13;5061805;28;1037;-44
2023/02/14 09:47:31;;;;;;;;;;;;;;;17.03;36.67;101961.00;5076719;28;1906;-46
2023/02/14 09:49:56;;;;;;;;;;;;;;;16.58;37.25;101954.38;5061954;28;1118;-46
2023/02/14 09:52:23;;;;;;;;;;;;;;;15.90;38.82;101955.97;5076013;28;1162;-45
2023/02/14 09:54:50;;;;;;;;;;;;;;;15.54;39.63;101955.97;5074624;28;1059;-45
2023/02/14 09:57:15;;;;;;;;;;;;;;;16.19;38.34;101945.09;5076338;28;1888;-48
2023/02/14 09:59:59;;;;;;;;;;;;;;;17.32;36.12;101951.84;5072322;28;1185;-47
2023/02/14 10:02:43;;;;;;;;;;;;;;;16.11;38.23;101943.53;5075306;28;981;-44
2023/02/14 10:05:14;;;;;;;;;;;;;;;15.68;39.30;101945.59;5076638;28;1229;-46
2023/02/14 10:07:46;;;;;;;;;;;;;;;15.49;39.75;101952.28;5075875;28;1902;-46
2023/02/14 10:10:30;;;;;;;;;;;;;;;16.19;38.39;101942.34;5076705;28;1030;-45
2023/02/14 10:13:15;;;;;;;;;;;;;;;17.16;36.35;101931.53;5074955;28;1125;-46
2023/02/14 10:15:41;;;;;;;;;;;;;;;16.03;38.49;101933.78;5074445;28;1123;-45
2023/02/14 10:18:07;;;;;;;;;;;;;;;15.63;39.54;101926.28;5074730;28;1494;-46
2023/02/14 10:20:43;;;;;;;;;;;;;;;15.42;39.88;101919.50;5075176;28;1050;-43
2023/02/14 10:23:23;;;;;;;;;;;;;;;15.45;39.72;101913.53;5074376;28;1078;-45
2023/02/14 10:25:59;;;;;;;;;;;;;;;17.09;36.69;101907.78;5075440;28;1978;-45
2023/02/14 10:28:34;;;;;;;;;;;;;;;16.43;37.78;101901.91;5075757;28;1841;-44
2023/02/14 10:31:00;;;;;;;;;;;;;;;15.75;38.89;101904.31;5074471;28;862;-47
2023/02/14 10:33:27;;;;;;;;;;;;;;;15.53;39.57;101917.84;5075581;28;1098;-43
2023/02/14 10:36:11;;;;;;;;;;;;;;;15.39;39.84;101915.31;5074645;28;1043;-46
2023/02/14 10:38:40;;;;;;;;;;;;;;;17.13;36.54;101910.88;5074542;28;1131;-43
2023/02/14 10:41:20;;;;;;;;;;;;;;;16.60;37.36;101896.47;5075921;28;1109;-46
2023/02/14 10:44:04;;;;;;;;;;;;;;;15.86;38.73;101908.16;5071740;28;1107;-43
2023/02/14 10:46:35;;;;;;;;;;;;;;;15.50;39.64;101899.09;5075559;28;1914;-44
2023/02/14 10:49:01;;;;;;;;;;;;;;;15.52;39.81;101891.47;5075001;28;732;-47
2023/02/14 10:51:32;;;;;;;;;;;;;;;17.08;36.59;101892.41;5075849;28;1070;-45
2023/02/14 10:54:16;;;;;;;;;;;;;;;16.74;37.03;101897.81;5074330;28;1039;-44
2023/02/14 10:56:46;;;;;;;;;;;;;;;15.90;38.57;101899.19;5062808;28;1070;-43
2023/02/14 10:59:22;;;;;;;;;;;;;;;15.63;39.21;101901.59;5075984;28;2098;-48
2023/02/14 11:01:48;;;;;;;;;;;;;;;15.59;39.65;101897.66;5074452;28;1091;-50
2023/02/14 11:04:14;;;;;;;;;;;;;;;17.16;36.39;101896.63;5075375;28;1047;-50
2023/02/14 11:06:39;;;;;;;;;;;;;;;16.66;37.48;101891.91;5074362;28;1913;-48
2023/02/14 11:09:05;;;;;;;;;;;;;;;15.91;38.74;101886.34;5075370;28;1067;-46
2023/02/14 11:11:32;;;;;;;;;;;;;;;15.60;39.30;101877.41;5075964;28;1079;-48
2023/02/14 11:13:57;;;;;;;;;;;;;;;16.70;37.50;101885.66;5074347;28;1046;-47
2023/02/14 11:16:30;;;;;;;;;;;;;;;16.69;37.39;101867.53;5073524;28;1273;-49
2023/02/14 11:19:19;;;;;;;;;;;;;;;15.91;38.70;101872.63;5072010;28;1209;-49
2023/02/14 11:21:44;;;;;;;;;;;;;;;15.52;39.51;101872.28;5072233;28;1506;-48
2023/02/14 11:24:25;;;;;;;;;;;;;;;15.39;39.90;101871.47;5075490;28;1026;-45
2023/02/14 11:26:51;;;;;;;;;;;;;;;16.75;37.43;101863.78;5075943;28;1914;-46
2023/02/14 11:29:24;;;;;;;;;;;;;;;17.08;36.30;101864.91;5075534;28;1796;-48
2023/02/14 11:31:50;;;;;;;;;;;;;;;16.13;38.49;101863.72;5106383;28;1009;-42
2023/02/14 11:34:31;;;;;;;;;;;;;;;15.78;39.05;101856.38;5074252;28;1143;-46
2023/02/14 11:36:56;;;;;;;;;;;;;;;15.51;39.86;101862.38;5075334;28;1253;-51
2023/02/14 11:39:22;;;;;;;;;;;;;;;15.30;40.37;101856.44;5075244;28;1167;-47
2023/02/14 11:41:48;;;;;;;;;;;;;;;15.76;39.32;101858.56;5075350;28;1083;-43
2023/02/14 11:44:20;;;;;;;;;;;;;;;17.19;36.33;101863.13;5073844;28;1106;-43
2023/02/14 11:46:46;;;;;;;;;;;;;;;16.64;37.43;101859.19;5072060;28;1934;-43
2023/02/14 11:49:23;;;;;;;;;;;;;;;15.94;38.90;101860.34;5075435;28;1344;-46
2023/02/14 11:51:48;;;;;;;;;;;;;;;15.53;39.58;101854.78;5079095;28;1262;-45
2023/02/14 11:54:30;;;;;;;;;;;;;;;15.59;39.66;101853.81;5079623;28;1115;-46
2023/02/14 11:57:00;;;;;;;;;;;;;;;17.28;36.44;101847.91;5079766;28;1030;-47
2023/02/14 11:59:27;;;;;;;;;;;;;;;16.45;38.08;101852.25;5072725;28;2117;-43
2023/02/14 12:01:52;;;;;;;;;;;;;;;16.10;38.85;101847.75;5079373;28;1003;-46
2023/02/14 12:04:19;;;;;;;;;;;;;;;17.26;36.64;101841.84;5078743;28;1106;-46
2023/02/14 12:06:45;;;;;;;;;;;;;;;16.18;38.42;101833.63;5076639;28;1901;-47
2023/02/14 12:09:30;;;;;;;;;;;;;;;16.33;38.82;101842.16;5065558;28;1352;-46
2023/02/14 12:12:00;;;;;;;;;;;;;;;17.50;36.22;101835.28;5078494;28;1611;-47
2023/02/14 12:14:27;;;;;;;;;;;;;;;16.40;38.60;101837.34;5077204;28;1206;-46
2023/02/14 12:16:57;;;;;;;;;;;;;;;16.02;39.34;101830.59;5080426;28;1067;-45
2023/02/14 12:19:34;;;;;;;;;;;;;;;15.76;39.47;101831.13;5076881;28;1243;-45
2023/02/14 12:22:00;;;;;;;;;;;;;;;15.57;40.19;101826.63;5077352;28;1036;-44
2023/02/14 12:24:25;;;;;;;;;;;;;;;15.42;40.17;101828.19;5076912;28;1138;-47
2023/02/14 12:27:00;;;;;;;;;;;;;;;16.94;37.24;101825.09;5078402;28;1917;-45
2023/02/14 12:29:31;;;;;;;;;;;;;;;16.75;37.59;101833.56;5067987;28;2109;-46
2023/02/14 12:31:58;;;;;;;;;;;;;;;15.94;39.16;101822.75;5075084;28;1258;-45
2023/02/14 12:34:23;;;;;;;;;;;;;;;15.65;39.87;101825.41;5078714;28;1288;-43
2023/02/14 12:36:49;;;;;;;;;;;;;;;15.46;40.29;101823.91;5078514;28;991;-44
2023/02/14 12:39:19;;;;;;;;;;;;;;;16.04;38.95;101816.63;5078377;28;1094;-47
2023/02/14 12:41:52;;;;;;;;;;;;;;;17.48;36.38;101818.22;5077635;28;1047;-50
2023/02/14 12:44:36;;;;;;;;;;;;;;;16.62;38.48;101806.44;5076845;28;1000;-45
2023/02/14 12:47:08;;;;;;;;;;;;;;;15.95;39.95;101797.00;5078515;28;1977;-50
2023/02/14 12:49:33;;;;;;;;;;;;;;;15.84;40.27;101795.94;5078501;28;967;-44
2023/02/14 12:52:17;;;;;;;;;;;;;;;15.73;40.65;101789.38;5078061;28;1018;-46
2023/02/14 12:55:01;;;;;;;;;;;;;;;16.17;39.69;101796.28;5077333;28;1088;-44
2023/02/14 12:57:43;;;;;;;;;;;;;;;17.75;36.66;101790.75;5077386;28;1935;-44
2023/02/14 13:00:08;;;;;;;;;;;;;;;16.64;38.81;101785.03;5076810;28;1226;-50
2023/02/14 13:02:46;;;;;;;;;;;;;;;16.09;40.06;101797.53;5078065;28;1015;-49
2023/02/14 13:05:14;;;;;;;;;;;;;;;15.76;40.68;101784.50;5077921;28;1103;-49
2023/02/14 13:07:43;;;;;;;;;;;;;;;15.55;40.79;101795.03;5076598;28;1988;-46
2023/02/14 13:10:21;;;;;;;;;;;;;;;17.08;37.93;101793.47;5072818;28;999;-44